sensor_id;sensor_type;location;lat;lon;timestamp;P1;durP1;ratioP1;P2;durP2;ratioP2
71104;SDS011;58760;48.716;8.962;2022-12-18T00:01:48;45.95;;;18.92;;
71104;SDS011;58760;48.716;8.962;2022-12-18T00:04:20;44.03;;;17.65;;
71104;SDS011;58760;48.716;8.962;2022-12-18T00:06:47;46.90;;;19.63;;
71104;SDS011;58760;48.716;8.962;2022-12-18T00:09:13;46.90;;;18.02;;
71104;SDS011;58760;48.716;8.962;2022-12-18T00:11:38;43.78;;;19.15;;
71104;SDS011;58760;48.716;8.962;2022-12-18T00:14:03;51.15;;;19.17;;
71104;SDS011;58760;48.716;8.962;2022-12-18T00:16:29;43.65;;;19.15;;
71104;SDS011;58760;48.716;8.962;2022-12-18T00:19:00;45.72;;;19.50;;
71104;SDS011;58760;48.716;8.962;2022-12-18T00:21:26;48.05;;;19.15;;
71104;SDS011;58760;48.716;8.962;2022-12-18T00:23:53;44.90;;;18.27;;
71104;SDS011;58760;48.716;8.962;2022-12-18T00:26:22;39.22;;;18.58;;
71104;SDS011;58760;48.716;8.962;2022-12-18T00:28:49;44.05;;;19.65;;
71104;SDS011;58760;48.716;8.962;2022-12-18T00:31:16;40.42;;;18.42;;
71104;SDS011;58760;48.716;8.962;2022-12-18T00:33:44;47.78;;;20.20;;
71104;SDS011;58760;48.716;8.962;2022-12-18T00:36:11;48.92;;;19.20;;
71104;SDS011;58760;48.716;8.962;2022-12-18T00:38:39;52.13;;;20.33;;
71104;SDS011;58760;48.716;8.962;2022-12-18T00:41:05;52.38;;;21.95;;
71104;SDS011;58760;48.716;8.962;2022-12-18T00:43:35;50.47;;;19.30;;
71104;SDS011;58760;48.716;8.962;2022-12-18T00:46:01;49.20;;;19.40;;
71104;SDS011;58760;48.716;8.962;2022-12-18T00:48:27;42.88;;;19.48;;
71104;SDS011;58760;48.716;8.962;2022-12-18T00:50:52;47.92;;;20.17;;
71104;SDS011;58760;48.716;8.962;2022-12-18T00:53:18;43.78;;;19.17;;
71104;SDS011;58760;48.716;8.962;2022-12-18T00:55:43;45.47;;;18.15;;
71104;SDS011;58760;48.716;8.962;2022-12-18T00:58:10;43.72;;;17.00;;
71104;SDS011;58760;48.716;8.962;2022-12-18T01:00:37;45.60;;;18.48;;
71104;SDS011;58760;48.716;8.962;2022-12-18T01:03:03;44.30;;;18.77;;
71104;SDS011;58760;48.716;8.962;2022-12-18T01:05:30;43.50;;;17.27;;
71104;SDS011;58760;48.716;8.962;2022-12-18T01:07:56;40.60;;;17.88;;
71104;SDS011;58760;48.716;8.962;2022-12-18T01:10:22;43.67;;;18.25;;
71104;SDS011;58760;48.716;8.962;2022-12-18T01:12:48;42.78;;;16.88;;
71104;SDS011;58760;48.716;8.962;2022-12-18T01:15:14;41.58;;;17.23;;
71104;SDS011;58760;48.716;8.962;2022-12-18T01:17:40;43.15;;;17.38;;
71104;SDS011;58760;48.716;8.962;2022-12-18T01:20:06;42.08;;;17.70;;
71104;SDS011;58760;48.716;8.962;2022-12-18T01:22:33;42.72;;;17.80;;
71104;SDS011;58760;48.716;8.962;2022-12-18T01:24:59;39.63;;;16.55;;
71104;SDS011;58760;48.716;8.962;2022-12-18T01:27:25;43.22;;;17.42;;
71104;SDS011;58760;48.716;8.962;2022-12-18T01:29:51;43.75;;;16.70;;
71104;SDS011;58760;48.716;8.962;2022-12-18T01:32:16;41.28;;;17.83;;
71104;SDS011;58760;48.716;8.962;2022-12-18T01:34:41;41.08;;;17.58;;
71104;SDS011;58760;48.716;8.962;2022-12-18T01:37:07;41.55;;;16.48;;
71104;SDS011;58760;48.716;8.962;2022-12-18T01:39:32;38.00;;;15.80;;
71104;SDS011;58760;48.716;8.962;2022-12-18T01:41:59;39.42;;;16.67;;
71104;SDS011;58760;48.716;8.962;2022-12-18T01:47:38;41.45;;;15.32;;
71104;SDS011;58760;48.716;8.962;2022-12-18T01:50:10;35.38;;;16.75;;
71104;SDS011;58760;48.716;8.962;2022-12-18T01:52:38;36.72;;;17.00;;
71104;SDS011;58760;48.716;8.962;2022-12-18T01:55:10;39.17;;;17.13;;
71104;SDS011;58760;48.716;8.962;2022-12-18T01:57:38;45.85;;;17.60;;
71104;SDS011;58760;48.716;8.962;2022-12-18T02:00:07;51.53;;;17.25;;
71104;SDS011;58760;48.716;8.962;2022-12-18T02:02:37;40.65;;;15.68;;
71104;SDS011;58760;48.716;8.962;2022-12-18T02:05:03;42.40;;;17.48;;
71104;SDS011;58760;48.716;8.962;2022-12-18T02:07:37;39.72;;;15.60;;
71104;SDS011;58760;48.716;8.962;2022-12-18T02:10:13;40.72;;;16.38;;
71104;SDS011;58760;48.716;8.962;2022-12-18T02:15:18;38.63;;;16.48;;
71104;SDS011;58760;48.716;8.962;2022-12-18T02:17:54;37.00;;;15.02;;
71104;SDS011;58760;48.716;8.962;2022-12-18T02:23:17;34.60;;;14.77;;
71104;SDS011;58760;48.716;8.962;2022-12-18T02:29:05;42.92;;;19.42;;
71104;SDS011;58760;48.716;8.962;2022-12-18T02:31:35;33.10;;;14.07;;
71104;SDS011;58760;48.716;8.962;2022-12-18T02:34:05;37.80;;;14.90;;
71104;SDS011;58760;48.716;8.962;2022-12-18T02:36:33;43.97;;;17.85;;
71104;SDS011;58760;48.716;8.962;2022-12-18T02:39:01;34.50;;;14.93;;
71104;SDS011;58760;48.716;8.962;2022-12-18T02:41:28;38.45;;;15.15;;
71104;SDS011;58760;48.716;8.962;2022-12-18T02:43:56;35.30;;;14.70;;
71104;SDS011;58760;48.716;8.962;2022-12-18T02:46:25;38.20;;;15.73;;
71104;SDS011;58760;48.716;8.962;2022-12-18T02:48:52;29.83;;;14.15;;
71104;SDS011;58760;48.716;8.962;2022-12-18T02:51:25;35.42;;;13.93;;
71104;SDS011;58760;48.716;8.962;2022-12-18T02:54:03;33.78;;;13.73;;
71104;SDS011;58760;48.716;8.962;2022-12-18T02:56:38;37.33;;;14.48;;
71104;SDS011;58760;48.716;8.962;2022-12-18T02:59:18;36.90;;;13.07;;
71104;SDS011;58760;48.716;8.962;2022-12-18T03:01:55;34.22;;;14.75;;
71104;SDS011;58760;48.716;8.962;2022-12-18T03:07:04;38.55;;;14.25;;
71104;SDS011;58760;48.716;8.962;2022-12-18T03:09:36;28.88;;;13.38;;
71104;SDS011;58760;48.716;8.962;2022-12-18T03:12:12;34.13;;;13.75;;
71104;SDS011;58760;48.716;8.962;2022-12-18T03:14:59;32.15;;;14.25;;
71104;SDS011;58760;48.716;8.962;2022-12-18T03:17:27;31.58;;;14.10;;
71104;SDS011;58760;48.716;8.962;2022-12-18T03:19:56;34.53;;;14.95;;
71104;SDS011;58760;48.716;8.962;2022-12-18T03:22:23;37.33;;;16.25;;
71104;SDS011;58760;48.716;8.962;2022-12-18T03:24:52;38.80;;;15.35;;
71104;SDS011;58760;48.716;8.962;2022-12-18T03:27:21;37.72;;;16.27;;
71104;SDS011;58760;48.716;8.962;2022-12-18T03:29:51;34.65;;;14.05;;
71104;SDS011;58760;48.716;8.962;2022-12-18T03:32:33;33.90;;;14.15;;
71104;SDS011;58760;48.716;8.962;2022-12-18T03:35:05;35.70;;;15.35;;
71104;SDS011;58760;48.716;8.962;2022-12-18T03:37:32;39.70;;;16.17;;
71104;SDS011;58760;48.716;8.962;2022-12-18T03:39:58;40.15;;;15.70;;
71104;SDS011;58760;48.716;8.962;2022-12-18T03:42:37;42.40;;;15.70;;
71104;SDS011;58760;48.716;8.962;2022-12-18T03:50:17;39.42;;;14.30;;
71104;SDS011;58760;48.716;8.962;2022-12-18T03:52:50;41.30;;;16.70;;
71104;SDS011;58760;48.716;8.962;2022-12-18T03:55:17;40.13;;;15.95;;
71104;SDS011;58760;48.716;8.962;2022-12-18T03:57:45;37.47;;;14.27;;
71104;SDS011;58760;48.716;8.962;2022-12-18T04:00:14;43.35;;;15.98;;
71104;SDS011;58760;48.716;8.962;2022-12-18T04:02:47;47.90;;;16.17;;
71104;SDS011;58760;48.716;8.962;2022-12-18T04:05:15;45.83;;;16.92;;
71104;SDS011;58760;48.716;8.962;2022-12-18T04:07:42;40.58;;;15.43;;
71104;SDS011;58760;48.716;8.962;2022-12-18T04:10:09;41.72;;;15.23;;
71104;SDS011;58760;48.716;8.962;2022-12-18T04:12:37;42.38;;;16.13;;
71104;SDS011;58760;48.716;8.962;2022-12-18T04:15:03;41.83;;;15.38;;
71104;SDS011;58760;48.716;8.962;2022-12-18T04:17:29;46.45;;;16.80;;
71104;SDS011;58760;48.716;8.962;2022-12-18T04:19:54;35.60;;;14.82;;
71104;SDS011;58760;48.716;8.962;2022-12-18T04:22:20;34.85;;;14.18;;
71104;SDS011;58760;48.716;8.962;2022-12-18T04:24:48;40.95;;;15.32;;
71104;SDS011;58760;48.716;8.962;2022-12-18T04:27:14;42.05;;;16.00;;
71104;SDS011;58760;48.716;8.962;2022-12-18T04:29:39;43.85;;;15.90;;
71104;SDS011;58760;48.716;8.962;2022-12-18T04:32:05;39.88;;;15.48;;
71104;SDS011;58760;48.716;8.962;2022-12-18T04:34:30;43.70;;;15.13;;
71104;SDS011;58760;48.716;8.962;2022-12-18T04:36:56;42.85;;;15.75;;
71104;SDS011;58760;48.716;8.962;2022-12-18T04:39:21;43.00;;;16.08;;
71104;SDS011;58760;48.716;8.962;2022-12-18T04:41:47;36.92;;;13.95;;
71104;SDS011;58760;48.716;8.962;2022-12-18T04:44:13;45.95;;;15.90;;
71104;SDS011;58760;48.716;8.962;2022-12-18T04:46:38;42.28;;;15.50;;
71104;SDS011;58760;48.716;8.962;2022-12-18T04:49:03;43.25;;;14.07;;
71104;SDS011;58760;48.716;8.962;2022-12-18T04:51:29;40.65;;;15.23;;
71104;SDS011;58760;48.716;8.962;2022-12-18T04:53:54;46.67;;;16.02;;
71104;SDS011;58760;48.716;8.962;2022-12-18T04:56:19;36.95;;;14.18;;
71104;SDS011;58760;48.716;8.962;2022-12-18T04:58:45;40.95;;;15.57;;
71104;SDS011;58760;48.716;8.962;2022-12-18T05:01:12;58.25;;;18.23;;
71104;SDS011;58760;48.716;8.962;2022-12-18T05:03:38;44.40;;;15.35;;
71104;SDS011;58760;48.716;8.962;2022-12-18T05:06:04;41.28;;;16.27;;
71104;SDS011;58760;48.716;8.962;2022-12-18T05:08:30;46.65;;;15.75;;
71104;SDS011;58760;48.716;8.962;2022-12-18T05:13:26;45.30;;;15.77;;
71104;SDS011;58760;48.716;8.962;2022-12-18T05:15:52;40.20;;;14.07;;
71104;SDS011;58760;48.716;8.962;2022-12-18T05:18:18;46.13;;;16.77;;
71104;SDS011;58760;48.716;8.962;2022-12-18T05:20:44;42.40;;;16.60;;
71104;SDS011;58760;48.716;8.962;2022-12-18T05:23:09;47.08;;;16.85;;
71104;SDS011;58760;48.716;8.962;2022-12-18T05:25:34;43.38;;;16.58;;
71104;SDS011;58760;48.716;8.962;2022-12-18T05:28:00;50.80;;;16.63;;
71104;SDS011;58760;48.716;8.962;2022-12-18T05:30:25;48.20;;;15.93;;
71104;SDS011;58760;48.716;8.962;2022-12-18T05:32:51;49.75;;;16.65;;
71104;SDS011;58760;48.716;8.962;2022-12-18T05:35:16;42.85;;;16.13;;
71104;SDS011;58760;48.716;8.962;2022-12-18T05:37:42;42.55;;;16.30;;
71104;SDS011;58760;48.716;8.962;2022-12-18T05:40:07;40.97;;;14.93;;
71104;SDS011;58760;48.716;8.962;2022-12-18T05:42:33;48.45;;;16.85;;
71104;SDS011;58760;48.716;8.962;2022-12-18T05:44:58;46.05;;;15.48;;
71104;SDS011;58760;48.716;8.962;2022-12-18T05:47:24;45.30;;;16.98;;
71104;SDS011;58760;48.716;8.962;2022-12-18T05:49:49;50.22;;;16.85;;
71104;SDS011;58760;48.716;8.962;2022-12-18T05:52:14;41.70;;;15.27;;
71104;SDS011;58760;48.716;8.962;2022-12-18T05:54:40;47.28;;;16.55;;
71104;SDS011;58760;48.716;8.962;2022-12-18T05:57:05;48.97;;;16.70;;
71104;SDS011;58760;48.716;8.962;2022-12-18T05:59:30;41.80;;;15.60;;
71104;SDS011;58760;48.716;8.962;2022-12-18T06:01:56;40.60;;;15.05;;
71104;SDS011;58760;48.716;8.962;2022-12-18T06:04:21;37.65;;;14.57;;
71104;SDS011;58760;48.716;8.962;2022-12-18T06:06:48;41.08;;;15.73;;
71104;SDS011;58760;48.716;8.962;2022-12-18T06:09:13;36.10;;;15.20;;
71104;SDS011;58760;48.716;8.962;2022-12-18T06:11:38;35.70;;;14.68;;
71104;SDS011;58760;48.716;8.962;2022-12-18T06:14:04;34.40;;;13.30;;
71104;SDS011;58760;48.716;8.962;2022-12-18T06:16:31;34.90;;;14.45;;
71104;SDS011;58760;48.716;8.962;2022-12-18T06:18:57;36.45;;;14.07;;
71104;SDS011;58760;48.716;8.962;2022-12-18T06:21:23;34.47;;;13.30;;
71104;SDS011;58760;48.716;8.962;2022-12-18T06:23:49;33.70;;;14.07;;
71104;SDS011;58760;48.716;8.962;2022-12-18T06:26:14;34.88;;;13.57;;
71104;SDS011;58760;48.716;8.962;2022-12-18T06:28:40;32.90;;;13.25;;
71104;SDS011;58760;48.716;8.962;2022-12-18T06:31:06;32.72;;;13.75;;
71104;SDS011;58760;48.716;8.962;2022-12-18T06:33:31;34.25;;;13.45;;
71104;SDS011;58760;48.716;8.962;2022-12-18T06:36:04;32.33;;;13.90;;
71104;SDS011;58760;48.716;8.962;2022-12-18T06:38:35;35.03;;;13.55;;
71104;SDS011;58760;48.716;8.962;2022-12-18T06:41:08;30.73;;;12.95;;
71104;SDS011;58760;48.716;8.962;2022-12-18T06:43:34;31.77;;;13.18;;
71104;SDS011;58760;48.716;8.962;2022-12-18T06:46:00;33.45;;;13.50;;
71104;SDS011;58760;48.716;8.962;2022-12-18T06:48:26;34.05;;;13.55;;
71104;SDS011;58760;48.716;8.962;2022-12-18T06:50:52;35.92;;;13.82;;
71104;SDS011;58760;48.716;8.962;2022-12-18T06:53:17;31.83;;;13.63;;
71104;SDS011;58760;48.716;8.962;2022-12-18T06:55:43;29.55;;;12.30;;
71104;SDS011;58760;48.716;8.962;2022-12-18T06:58:08;35.90;;;12.85;;
71104;SDS011;58760;48.716;8.962;2022-12-18T07:00:33;36.08;;;13.30;;
71104;SDS011;58760;48.716;8.962;2022-12-18T07:02:59;34.08;;;13.32;;
71104;SDS011;58760;48.716;8.962;2022-12-18T07:05:24;35.80;;;12.93;;
71104;SDS011;58760;48.716;8.962;2022-12-18T07:07:50;30.38;;;12.23;;
71104;SDS011;58760;48.716;8.962;2022-12-18T07:10:15;36.10;;;13.63;;
71104;SDS011;58760;48.716;8.962;2022-12-18T07:12:41;39.90;;;14.48;;
71104;SDS011;58760;48.716;8.962;2022-12-18T07:15:06;36.15;;;13.77;;
71104;SDS011;58760;48.716;8.962;2022-12-18T07:17:32;30.77;;;13.23;;
71104;SDS011;58760;48.716;8.962;2022-12-18T07:19:57;34.80;;;14.57;;
71104;SDS011;58760;48.716;8.962;2022-12-18T07:22:24;41.65;;;14.02;;
71104;SDS011;58760;48.716;8.962;2022-12-18T07:24:50;38.95;;;13.82;;
71104;SDS011;58760;48.716;8.962;2022-12-18T07:27:15;35.53;;;12.18;;
71104;SDS011;58760;48.716;8.962;2022-12-18T07:29:41;40.50;;;14.45;;
71104;SDS011;58760;48.716;8.962;2022-12-18T07:32:06;35.88;;;14.40;;
71104;SDS011;58760;48.716;8.962;2022-12-18T07:34:32;39.35;;;14.25;;
71104;SDS011;58760;48.716;8.962;2022-12-18T07:36:58;43.13;;;14.90;;
71104;SDS011;58760;48.716;8.962;2022-12-18T07:39:23;34.40;;;13.52;;
71104;SDS011;58760;48.716;8.962;2022-12-18T07:41:49;40.40;;;14.38;;
71104;SDS011;58760;48.716;8.962;2022-12-18T07:44:34;42.00;;;16.13;;
71104;SDS011;58760;48.716;8.962;2022-12-18T07:46:59;43.17;;;15.80;;
71104;SDS011;58760;48.716;8.962;2022-12-18T07:49:25;44.13;;;14.75;;
71104;SDS011;58760;48.716;8.962;2022-12-18T07:51:50;39.38;;;15.90;;
71104;SDS011;58760;48.716;8.962;2022-12-18T07:54:15;42.67;;;15.40;;
71104;SDS011;58760;48.716;8.962;2022-12-18T07:56:41;42.38;;;15.05;;
71104;SDS011;58760;48.716;8.962;2022-12-18T07:59:06;42.92;;;13.65;;
71104;SDS011;58760;48.716;8.962;2022-12-18T08:01:32;41.67;;;15.48;;
71104;SDS011;58760;48.716;8.962;2022-12-18T08:03:59;38.88;;;14.57;;
71104;SDS011;58760;48.716;8.962;2022-12-18T08:06:24;40.50;;;15.27;;
71104;SDS011;58760;48.716;8.962;2022-12-18T08:08:53;39.10;;;15.05;;
71104;SDS011;58760;48.716;8.962;2022-12-18T08:11:20;44.60;;;15.40;;
71104;SDS011;58760;48.716;8.962;2022-12-18T08:13:45;44.03;;;15.48;;
71104;SDS011;58760;48.716;8.962;2022-12-18T08:16:11;35.70;;;14.38;;
71104;SDS011;58760;48.716;8.962;2022-12-18T08:18:36;39.40;;;15.30;;
71104;SDS011;58760;48.716;8.962;2022-12-18T08:23:34;40.03;;;14.20;;
71104;SDS011;58760;48.716;8.962;2022-12-18T08:26:00;43.13;;;16.23;;
71104;SDS011;58760;48.716;8.962;2022-12-18T08:28:26;36.08;;;14.45;;
71104;SDS011;58760;48.716;8.962;2022-12-18T08:30:52;42.75;;;15.32;;
71104;SDS011;58760;48.716;8.962;2022-12-18T08:33:17;43.85;;;16.00;;
71104;SDS011;58760;48.716;8.962;2022-12-18T08:35:43;43.42;;;15.13;;
71104;SDS011;58760;48.716;8.962;2022-12-18T08:38:09;41.38;;;16.85;;
71104;SDS011;58760;48.716;8.962;2022-12-18T08:40:34;45.25;;;16.65;;
71104;SDS011;58760;48.716;8.962;2022-12-18T08:42:59;42.58;;;15.32;;
71104;SDS011;58760;48.716;8.962;2022-12-18T08:45:44;40.72;;;15.32;;
71104;SDS011;58760;48.716;8.962;2022-12-18T08:48:09;40.38;;;14.95;;
71104;SDS011;58760;48.716;8.962;2022-12-18T08:50:34;35.08;;;14.50;;
71104;SDS011;58760;48.716;8.962;2022-12-18T08:53:00;43.25;;;13.95;;
71104;SDS011;58760;48.716;8.962;2022-12-18T08:55:25;41.00;;;14.77;;
71104;SDS011;58760;48.716;8.962;2022-12-18T08:57:51;40.63;;;14.40;;
71104;SDS011;58760;48.716;8.962;2022-12-18T09:00:16;39.10;;;16.48;;
71104;SDS011;58760;48.716;8.962;2022-12-18T09:02:42;39.88;;;16.10;;
71104;SDS011;58760;48.716;8.962;2022-12-18T09:05:07;41.30;;;15.98;;
71104;SDS011;58760;48.716;8.962;2022-12-18T09:07:34;43.13;;;17.02;;
71104;SDS011;58760;48.716;8.962;2022-12-18T09:09:59;42.42;;;17.15;;
71104;SDS011;58760;48.716;8.962;2022-12-18T09:12:25;41.10;;;17.42;;
71104;SDS011;58760;48.716;8.962;2022-12-18T09:14:50;42.55;;;18.05;;
71104;SDS011;58760;48.716;8.962;2022-12-18T09:17:16;44.88;;;18.73;;
71104;SDS011;58760;48.716;8.962;2022-12-18T09:19:41;46.17;;;17.75;;
71104;SDS011;58760;48.716;8.962;2022-12-18T09:22:06;43.22;;;17.38;;
71104;SDS011;58760;48.716;8.962;2022-12-18T09:24:32;43.53;;;18.88;;
71104;SDS011;58760;48.716;8.962;2022-12-18T09:26:57;42.35;;;17.42;;
71104;SDS011;58760;48.716;8.962;2022-12-18T09:29:24;47.55;;;20.33;;
71104;SDS011;58760;48.716;8.962;2022-12-18T09:31:49;50.15;;;18.95;;
71104;SDS011;58760;48.716;8.962;2022-12-18T09:34:15;62.60;;;22.58;;
71104;SDS011;58760;48.716;8.962;2022-12-18T09:36:41;59.28;;;21.25;;
71104;SDS011;58760;48.716;8.962;2022-12-18T09:39:06;50.10;;;20.00;;
71104;SDS011;58760;48.716;8.962;2022-12-18T09:41:50;43.25;;;17.73;;
71104;SDS011;58760;48.716;8.962;2022-12-18T09:44:21;50.50;;;18.40;;
71104;SDS011;58760;48.716;8.962;2022-12-18T09:49:56;44.22;;;17.17;;
71104;SDS011;58760;48.716;8.962;2022-12-18T09:57:37;44.75;;;16.83;;
71104;SDS011;58760;48.716;8.962;2022-12-18T10:00:17;42.95;;;16.80;;
71104;SDS011;58760;48.716;8.962;2022-12-18T10:02:46;44.92;;;16.88;;
71104;SDS011;58760;48.716;8.962;2022-12-18T10:05:15;40.63;;;17.05;;
71104;SDS011;58760;48.716;8.962;2022-12-18T10:07:53;37.55;;;16.60;;
71104;SDS011;58760;48.716;8.962;2022-12-18T10:13:07;40.72;;;16.88;;
71104;SDS011;58760;48.716;8.962;2022-12-18T10:21:19;37.85;;;16.02;;
71104;SDS011;58760;48.716;8.962;2022-12-18T10:26:23;41.75;;;18.38;;
71104;SDS011;58760;48.716;8.962;2022-12-18T10:28:49;44.10;;;18.67;;
71104;SDS011;58760;48.716;8.962;2022-12-18T10:31:17;45.47;;;18.73;;
71104;SDS011;58760;48.716;8.962;2022-12-18T10:33:44;43.50;;;17.40;;
71104;SDS011;58760;48.716;8.962;2022-12-18T10:36:10;41.97;;;17.10;;
71104;SDS011;58760;48.716;8.962;2022-12-18T10:38:36;39.75;;;15.63;;
71104;SDS011;58760;48.716;8.962;2022-12-18T10:41:06;36.90;;;15.52;;
71104;SDS011;58760;48.716;8.962;2022-12-18T10:43:39;34.35;;;14.73;;
71104;SDS011;58760;48.716;8.962;2022-12-18T10:51:18;35.30;;;14.45;;
71104;SDS011;58760;48.716;8.962;2022-12-18T10:53:51;38.25;;;14.93;;
71104;SDS011;58760;48.716;8.962;2022-12-18T10:56:27;29.77;;;13.73;;
71104;SDS011;58760;48.716;8.962;2022-12-18T10:58:56;33.28;;;14.57;;
71104;SDS011;58760;48.716;8.962;2022-12-18T11:04:16;31.45;;;13.20;;
71104;SDS011;58760;48.716;8.962;2022-12-18T11:06:53;30.52;;;13.57;;
71104;SDS011;58760;48.716;8.962;2022-12-18T11:09:24;32.53;;;13.60;;
71104;SDS011;58760;48.716;8.962;2022-12-18T11:11:53;30.48;;;13.48;;
71104;SDS011;58760;48.716;8.962;2022-12-18T11:16:47;33.65;;;13.60;;
71104;SDS011;58760;48.716;8.962;2022-12-18T11:19:19;30.45;;;12.93;;
71104;SDS011;58760;48.716;8.962;2022-12-18T11:21:59;27.15;;;12.70;;
71104;SDS011;58760;48.716;8.962;2022-12-18T11:24:32;28.88;;;13.00;;
71104;SDS011;58760;48.716;8.962;2022-12-18T11:27:00;28.42;;;13.07;;
71104;SDS011;58760;48.716;8.962;2022-12-18T11:29:30;33.15;;;13.50;;
71104;SDS011;58760;48.716;8.962;2022-12-18T11:34:52;28.10;;;12.88;;
71104;SDS011;58760;48.716;8.962;2022-12-18T11:37:24;29.65;;;12.82;;
71104;SDS011;58760;48.716;8.962;2022-12-18T11:39:58;30.30;;;12.27;;
71104;SDS011;58760;48.716;8.962;2022-12-18T11:42:32;28.52;;;12.32;;
71104;SDS011;58760;48.716;8.962;2022-12-18T11:53:02;29.05;;;12.20;;
71104;SDS011;58760;48.716;8.962;2022-12-18T11:55:37;28.95;;;11.98;;
71104;SDS011;58760;48.716;8.962;2022-12-18T12:04:10;26.17;;;11.98;;
71104;SDS011;58760;48.716;8.962;2022-12-18T12:09:23;25.65;;;11.55;;
71104;SDS011;58760;48.716;8.962;2022-12-18T12:20:16;26.98;;;12.38;;
71104;SDS011;58760;48.716;8.962;2022-12-18T12:25:59;26.17;;;12.45;;
71104;SDS011;58760;48.716;8.962;2022-12-18T12:31:20;28.17;;;13.57;;
71104;SDS011;58760;48.716;8.962;2022-12-18T12:33:59;25.10;;;12.70;;
71104;SDS011;58760;48.716;8.962;2022-12-18T12:39:01;33.87;;;14.37;;
71104;SDS011;58760;48.716;8.962;2022-12-18T12:41:33;32.70;;;14.35;;
71104;SDS011;58760;48.716;8.962;2022-12-18T12:44:24;29.50;;;13.05;;
71104;SDS011;58760;48.716;8.962;2022-12-18T12:46:55;28.30;;;13.00;;
71104;SDS011;58760;48.716;8.962;2022-12-18T12:49:25;25.45;;;13.23;;
71104;SDS011;58760;48.716;8.962;2022-12-18T12:51:58;31.77;;;14.00;;
71104;SDS011;58760;48.716;8.962;2022-12-18T12:54:29;27.10;;;13.50;;
71104;SDS011;58760;48.716;8.962;2022-12-18T12:57:01;32.67;;;14.63;;
71104;SDS011;58760;48.716;8.962;2022-12-18T13:02:28;28.95;;;14.30;;
71104;SDS011;58760;48.716;8.962;2022-12-18T13:05:05;27.85;;;14.73;;
71104;SDS011;58760;48.716;8.962;2022-12-18T13:07:41;29.52;;;14.23;;
71104;SDS011;58760;48.716;8.962;2022-12-18T13:16:11;31.90;;;13.98;;
71104;SDS011;58760;48.716;8.962;2022-12-18T13:18:37;27.80;;;14.43;;
71104;SDS011;58760;48.716;8.962;2022-12-18T13:21:04;30.17;;;14.20;;
71104;SDS011;58760;48.716;8.962;2022-12-18T13:23:43;27.27;;;13.57;;
71104;SDS011;58760;48.716;8.962;2022-12-18T13:31:11;28.90;;;14.27;;
71104;SDS011;58760;48.716;8.962;2022-12-18T13:33:44;29.27;;;14.70;;
71104;SDS011;58760;48.716;8.962;2022-12-18T13:39:08;29.27;;;14.38;;
71104;SDS011;58760;48.716;8.962;2022-12-18T13:41:35;30.17;;;13.65;;
71104;SDS011;58760;48.716;8.962;2022-12-18T13:46:59;29.58;;;13.43;;
71104;SDS011;58760;48.716;8.962;2022-12-18T13:49:36;26.83;;;13.18;;
71104;SDS011;58760;48.716;8.962;2022-12-18T13:52:17;31.73;;;14.27;;
71104;SDS011;58760;48.716;8.962;2022-12-18T13:54:50;30.90;;;13.95;;
71104;SDS011;58760;48.716;8.962;2022-12-18T13:57:34;29.83;;;13.55;;
71104;SDS011;58760;48.716;8.962;2022-12-18T14:02:47;31.00;;;14.68;;
71104;SDS011;58760;48.716;8.962;2022-12-18T14:08:10;37.40;;;15.05;;
71104;SDS011;58760;48.716;8.962;2022-12-18T14:10:41;29.92;;;14.50;;
71104;SDS011;58760;48.716;8.962;2022-12-18T14:13:09;34.67;;;15.02;;
71104;SDS011;58760;48.716;8.962;2022-12-18T14:18:15;31.67;;;13.60;;
71104;SDS011;58760;48.716;8.962;2022-12-18T14:20:50;33.75;;;13.80;;
71104;SDS011;58760;48.716;8.962;2022-12-18T14:23:51;32.28;;;13.68;;
71104;SDS011;58760;48.716;8.962;2022-12-18T14:28:46;31.27;;;14.38;;
71104;SDS011;58760;48.716;8.962;2022-12-18T14:31:22;36.15;;;14.82;;
71104;SDS011;58760;48.716;8.962;2022-12-18T14:33:49;32.10;;;14.15;;
71104;SDS011;58760;48.716;8.962;2022-12-18T14:36:18;32.97;;;14.18;;
71104;SDS011;58760;48.716;8.962;2022-12-18T14:38:49;27.45;;;13.30;;
71104;SDS011;58760;48.716;8.962;2022-12-18T14:41:16;32.13;;;15.48;;
71104;SDS011;58760;48.716;8.962;2022-12-18T14:43:44;34.53;;;15.38;;
71104;SDS011;58760;48.716;8.962;2022-12-18T14:52:05;31.27;;;14.88;;
71104;SDS011;58760;48.716;8.962;2022-12-18T14:54:32;36.70;;;15.25;;
71104;SDS011;58760;48.716;8.962;2022-12-18T14:57:16;33.05;;;14.82;;
71104;SDS011;58760;48.716;8.962;2022-12-18T14:59:48;30.30;;;13.93;;
71104;SDS011;58760;48.716;8.962;2022-12-18T15:02:27;33.20;;;14.73;;
71104;SDS011;58760;48.716;8.962;2022-12-18T15:07:41;37.60;;;15.43;;
71104;SDS011;58760;48.716;8.962;2022-12-18T15:10:12;40.55;;;15.70;;
71104;SDS011;58760;48.716;8.962;2022-12-18T15:12:49;38.92;;;15.65;;
71104;SDS011;58760;48.716;8.962;2022-12-18T15:20:27;39.22;;;15.65;;
71104;SDS011;58760;48.716;8.962;2022-12-18T15:22:56;38.88;;;15.43;;
71104;SDS011;58760;48.716;8.962;2022-12-18T15:25:31;40.63;;;16.13;;
71104;SDS011;58760;48.716;8.962;2022-12-18T15:27:59;36.58;;;15.95;;
71104;SDS011;58760;48.716;8.962;2022-12-18T15:30:25;43.08;;;17.50;;
71104;SDS011;58760;48.716;8.962;2022-12-18T15:32:51;44.85;;;18.92;;
71104;SDS011;58760;48.716;8.962;2022-12-18T15:35:37;39.92;;;16.60;;
71104;SDS011;58760;48.716;8.962;2022-12-18T15:38:02;41.17;;;16.15;;
71104;SDS011;58760;48.716;8.962;2022-12-18T15:40:28;39.90;;;16.75;;
71104;SDS011;58760;48.716;8.962;2022-12-18T15:42:53;40.08;;;17.10;;
71104;SDS011;58760;48.716;8.962;2022-12-18T15:45:39;39.25;;;15.32;;
71104;SDS011;58760;48.716;8.962;2022-12-18T15:48:15;43.30;;;16.75;;
71104;SDS011;58760;48.716;8.962;2022-12-18T15:50:45;41.88;;;18.10;;
71104;SDS011;58760;48.716;8.962;2022-12-18T15:53:11;43.38;;;17.08;;
71104;SDS011;58760;48.716;8.962;2022-12-18T15:55:36;43.50;;;18.15;;
71104;SDS011;58760;48.716;8.962;2022-12-18T15:58:21;39.05;;;16.33;;
71104;SDS011;58760;48.716;8.962;2022-12-18T16:00:46;43.05;;;17.35;;
71104;SDS011;58760;48.716;8.962;2022-12-18T16:03:11;39.83;;;16.75;;
71104;SDS011;58760;48.716;8.962;2022-12-18T16:05:37;44.65;;;16.75;;
71104;SDS011;58760;48.716;8.962;2022-12-18T16:08:02;42.58;;;16.98;;
71104;SDS011;58760;48.716;8.962;2022-12-18T16:10:28;45.90;;;16.98;;
71104;SDS011;58760;48.716;8.962;2022-12-18T16:12:53;38.55;;;17.50;;
71104;SDS011;58760;48.716;8.962;2022-12-18T16:15:19;41.75;;;17.02;;
71104;SDS011;58760;48.716;8.962;2022-12-18T16:17:45;39.38;;;16.02;;
71104;SDS011;58760;48.716;8.962;2022-12-18T16:20:12;39.03;;;15.43;;
71104;SDS011;58760;48.716;8.962;2022-12-18T16:22:40;39.63;;;15.95;;
71104;SDS011;58760;48.716;8.962;2022-12-18T16:27:40;40.78;;;15.88;;
71104;SDS011;58760;48.716;8.962;2022-12-18T16:30:05;37.78;;;15.25;;
71104;SDS011;58760;48.716;8.962;2022-12-18T16:32:31;39.50;;;16.73;;
71104;SDS011;58760;48.716;8.962;2022-12-18T16:34:59;44.15;;;17.33;;
71104;SDS011;58760;48.716;8.962;2022-12-18T16:37:25;44.47;;;18.27;;
71104;SDS011;58760;48.716;8.962;2022-12-18T16:39:51;41.92;;;20.30;;
71104;SDS011;58760;48.716;8.962;2022-12-18T16:42:18;52.33;;;20.50;;
71104;SDS011;58760;48.716;8.962;2022-12-18T16:44:44;52.10;;;21.45;;
71104;SDS011;58760;48.716;8.962;2022-12-18T16:47:10;43.70;;;19.65;;